• Join FlightAware (Why Join?)
  • Login
  • US Flag 
08:21AM EDT


 

Airport Tracker/Info


-or-


 

Live Flight TrackerFlight Track Log ✈ N288PA ✈ 17-Oct-2013 ✈ KPHX - KAVQ

Flight Track Log - Related Links

Times and Time Zones

All times are in EDT time to prevent confusion due to time zone crossing. See the N288PA flight status page for this flight to view local times or setup timezone preferences in your user account.

Time Position Orientation Groundspeed Altitude Reporting Facility
EDT Latitude Longitude Course Direction KTS MPH feet Rate Location/Type
12:07PM 33.1833 -111.8167 90° East 88 101 4,900  Level Phoenix TRACON
12:08PM 33.1833 -111.8000 90° East 93 107 5,200 300 Climbing Phoenix TRACON
12:09PM 33.1583 -111.7908 163° South 92 106 5,500 120 Climbing Albuquerque Center
12:10PM 33.1325 -111.7686 144° Southeast 111 128 5,500  Level Albuquerque Center
12:11PM 33.0969 -111.7489 155° Southeast 116 133 5,500 -60 Level Albuquerque Center
12:12PM 33.0706 -111.7286 147° Southeast 113 130 5,400 -60 Descending Albuquerque Center
12:13PM 33.0417 -111.7108 153° Southeast 117 135 5,400  Level Albuquerque Center
12:14PM 33.0144 -111.6956 155° Southeast 109 125 5,500  Climbing Albuquerque Center
12:15PM 32.9867 -111.6789 153° Southeast 112 129 5,500  Level Albuquerque Center
12:16PM 32.9561 -111.6664 161° South 116 133 5,500 -60 Level Albuquerque Center
12:17PM 32.9208 -111.6569 167° South 112 129 5,400 -60 Descending Albuquerque Center
12:18PM 32.8889 -111.6700 199° South 118 136 5,400  Level Albuquerque Center
12:20PM 32.8569 -111.6744 187° South 116 133 5,400  Level Albuquerque Center
12:21PM 32.8258 -111.6756 182° South 114 131 5,400  Level Albuquerque Center
12:22PM 32.7939 -111.6761 181° South 115 132 5,500  Climbing Albuquerque Center
12:23PM 32.7564 -111.6736 177° South 113 130 5,500  Level Albuquerque Center
12:24PM 32.7469 -111.6381 108° East 114 131 5,500  Level Albuquerque Center
12:25PM 32.7383 -111.6028 106° East 113 130 5,500 -60 Level Albuquerque Center
12:30PM 32.6660 -111.4110 106° East 115 132 -60 Descending FlightAware
12:31PM 32.6600 -111.4000 123° Southeast 112 129 1,320 Level FlightAware
12:31PM 32.6550 -111.3910 123° Southeast 112 129 1,440 Level FlightAware
12:31PM 32.6500 -111.3790 116° Southeast 112 129 1,560 Level FlightAware
12:32PM 32.6410 -111.3540 113° Southeast 108 124 1,860 Level FlightAware
12:32PM 32.6380 -111.3460 114° Southeast 110 127 2,520 Level FlightAware
12:33PM 32.6320 -111.3350 123° Southeast 113 130 2,820 Level FlightAware
12:33PM 32.6260 -111.3240 123° Southeast 107 123 3,480 Level FlightAware
12:33PM 32.6200 -111.3130 123° Southeast 107 123 4,740 Level FlightAware
12:34PM 32.6131 -111.2994 123° Southeast 109 125 5,000 2,640 Climbing Albuquerque Center
12:35PM 32.5883 -111.2672 132° Southeast 111 128 4,400 -300 Descending Albuquerque Center
12:42PM 32.4240 -111.2030 132° Southeast 2,600 -300 Descending FlightAware
12:42PM 32.4270 -111.2170 284° West 111 128 2,600 -120 Level FlightAware
12:43PM 32.4310 -111.2400 282° West 111 128 2,500 -180 Descending FlightAware